createdAt,value
2022-09-20T00:01:11.617Z,78.08
2022-09-20T00:04:17.161Z,77.93
2022-09-20T00:07:22.702Z,77.72
2022-09-20T00:10:31.269Z,77.70
2022-09-20T00:13:39.568Z,78.03
2022-09-20T00:16:47.754Z,77.56
2022-09-20T00:19:57.030Z,77.66
2022-09-20T00:23:02.572Z,77.63
2022-09-20T00:26:08.600Z,77.74
2022-09-20T00:29:14.159Z,77.38
2022-09-20T00:32:22.492Z,77.80
2022-09-20T00:35:25.818Z,77.96
2022-09-20T00:38:31.354Z,78.12
2022-09-20T00:41:37.964Z,78.32
2022-09-20T00:44:56.726Z,78.44
2022-09-20T00:48:16.306Z,78.50
2022-09-20T00:51:31.736Z,78.76
2022-09-20T00:54:37.712Z,78.62
2022-09-20T00:57:45.756Z,79.18
2022-09-20T01:01:00.813Z,79.10
2022-09-20T01:04:12.422Z,79.05
2022-09-20T01:07:25.266Z,78.61
2022-09-20T01:10:30.988Z,78.67
2022-09-20T01:13:36.546Z,78.53
2022-09-20T01:16:42.688Z,78.99
2022-09-20T01:20:16.258Z,78.28
2022-09-20T01:23:51.778Z,78.52
2022-09-20T01:27:26.096Z,78.43
2022-09-20T01:30:46.763Z,78.55
2022-09-20T01:34:01.607Z,78.49
2022-09-20T01:37:19.442Z,78.02
2022-09-20T01:40:41.853Z,77.89
2022-09-20T01:43:58.756Z,78.33
2022-09-20T01:47:21.272Z,78.41
2022-09-20T01:50:42.172Z,78.48
2022-09-20T01:54:40.216Z,78.58
2022-09-20T01:58:29.624Z,78.51
2022-09-20T02:02:20.127Z,78.34
2022-09-20T02:06:29.805Z,78.18
2022-09-20T02:10:22.002Z,78.68
2022-09-20T02:13:36.540Z,78.50
2022-09-20T02:16:53.442Z,79.02
2022-09-20T02:20:26.204Z,78.76
2022-09-20T02:23:54.429Z,78.97
2022-09-20T02:27:24.821Z,78.85
2022-09-20T02:30:48.867Z,78.65
2022-09-20T02:34:35.608Z,78.96
2022-09-20T02:38:09.962Z,78.78
2022-09-20T02:41:54.492Z,78.74
2022-09-20T02:45:12.786Z,78.18
2022-09-20T02:48:30.605Z,78.50
2022-09-20T02:51:47.689Z,78.93
2022-09-20T02:55:10.510Z,78.88
2022-09-20T02:58:39.098Z,78.41
2022-09-20T03:01:59.840Z,78.97
2022-09-20T03:05:25.324Z,78.73
2022-09-20T03:08:50.647Z,78.91
2022-09-20T03:12:17.930Z,78.72
2022-09-20T03:15:51.119Z,78.88
2022-09-20T03:19:29.325Z,78.76
2022-09-20T03:22:54.362Z,78.88
2022-09-20T03:26:21.533Z,78.54
2022-09-20T03:29:55.936Z,78.23
2022-09-20T03:33:17.040Z,78.18
2022-09-20T03:37:00.443Z,78.54
2022-09-20T03:40:47.568Z,78.20
2022-09-20T03:44:25.537Z,78.23
2022-09-20T03:48:06.200Z,77.80
2022-09-20T03:51:34.334Z,78.12
2022-09-20T03:55:30.422Z,77.92
2022-09-20T03:59:15.807Z,77.34
2022-09-20T04:02:47.796Z,77.92
2022-09-20T04:06:34.293Z,77.76
2022-09-20T04:10:27.141Z,78.19
2022-09-20T04:14:11.256Z,78.03
2022-09-20T04:17:39.108Z,77.75
2022-09-20T04:20:58.148Z,77.54
2022-09-20T04:24:16.515Z,77.15
2022-09-20T04:27:31.537Z,77.27
2022-09-20T04:30:46.432Z,77.50
2022-09-20T04:33:59.935Z,76.89
2022-09-20T04:37:32.398Z,76.57
2022-09-20T04:41:38.171Z,77.38
2022-09-20T04:46:03.661Z,76.60
2022-09-20T04:49:59.718Z,76.94
2022-09-20T04:53:57.630Z,76.83
2022-09-20T04:57:48.121Z,76.50
2022-09-20T05:01:47.679Z,76.17
2022-09-20T05:05:41.396Z,76.28
2022-09-20T05:09:25.561Z,76.91
2022-09-20T05:13:08.208Z,76.65
2022-09-20T05:16:34.145Z,76.42
2022-09-20T05:20:12.766Z,76.18
2022-09-20T05:23:49.640Z,76.40
2022-09-20T05:27:37.162Z,75.80
2022-09-20T05:30:52.063Z,75.43
2022-09-20T05:34:12.872Z,75.10
2022-09-20T05:37:43.916Z,74.77
2022-09-20T05:41:21.327Z,74.59
2022-09-20T05:44:56.926Z,74.65
2022-09-20T05:48:16.415Z,74.39
2022-09-20T05:51:48.437Z,74.53
2022-09-20T05:55:31.327Z,74.99
2022-09-20T05:59:04.130Z,74.72
2022-09-20T06:02:40.318Z,74.79
2022-09-20T06:06:15.578Z,74.41
2022-09-20T06:09:54.922Z,74.26
2022-09-20T06:13:26.550Z,73.58
2022-09-20T06:16:46.393Z,73.52
2022-09-20T06:20:22.095Z,73.97
2022-09-20T06:23:32.142Z,73.37
2022-09-20T06:26:40.994Z,73.12
2022-09-20T06:29:57.880Z,73.32
2022-09-20T06:33:16.821Z,72.66
2022-09-20T06:36:48.061Z,72.77
2022-09-20T06:40:18.293Z,72.56
2022-09-20T06:43:24.204Z,72.93
2022-09-20T06:46:34.916Z,72.32
2022-09-20T06:49:42.538Z,72.05
2022-09-20T06:52:52.727Z,72.20
2022-09-20T06:56:00.452Z,71.97
2022-09-20T06:59:08.700Z,72.62
2022-09-20T07:02:14.384Z,72.86
2022-09-20T07:05:22.249Z,73.19
2022-09-20T07:08:30.599Z,72.54
2022-09-20T07:11:36.234Z,72.61
2022-09-20T07:14:43.240Z,72.00
2022-09-20T07:17:49.177Z,71.84
2022-09-20T07:20:54.682Z,70.79
2022-09-20T07:24:02.882Z,71.35
2022-09-20T07:27:09.482Z,71.19
2022-09-20T07:30:18.742Z,70.72
2022-09-20T07:33:25.313Z,71.93
2022-09-20T07:36:30.845Z,71.97
2022-09-20T07:39:38.960Z,71.66
2022-09-20T07:42:46.216Z,71.00
2022-09-20T07:45:56.140Z,70.15
2022-09-20T07:49:01.718Z,70.07
2022-09-20T07:52:07.938Z,69.19
2022-09-20T07:55:16.029Z,68.63
2022-09-20T07:58:21.724Z,68.65
2022-09-20T08:01:27.245Z,68.91
2022-09-20T08:04:32.917Z,68.49
2022-09-20T08:07:38.844Z,68.43
2022-09-20T08:10:48.764Z,68.83
2022-09-20T08:14:06.269Z,69.20
2022-09-20T08:17:13.516Z,68.63
2022-09-20T08:20:19.739Z,69.27
2022-09-20T08:23:25.346Z,68.81
2022-09-20T08:26:36.836Z,68.23
2022-09-20T08:29:42.632Z,67.71
2022-09-20T08:32:48.374Z,67.81
2022-09-20T08:35:57.789Z,68.67
2022-09-20T08:42:43.841Z,67.93
2022-09-20T08:45:50.645Z,67.14
2022-09-20T08:48:57.789Z,67.14
2022-09-20T08:52:10.368Z,65.54
2022-09-20T08:55:20.131Z,62.85
2022-09-20T08:58:30.141Z,61.35
2022-09-20T09:01:35.968Z,61.52
2022-09-20T09:04:41.365Z,61.01
2022-09-20T09:07:46.953Z,60.87
2022-09-20T09:10:59.063Z,60.80
2022-09-20T09:14:26.694Z,60.70
2022-09-20T09:17:34.290Z,61.13
2022-09-20T09:20:47.488Z,61.47
2022-09-20T09:24:01.404Z,61.69
2022-09-20T09:27:17.980Z,61.87
2022-09-20T09:30:30.465Z,61.90
2022-09-20T09:33:37.728Z,61.72
2022-09-20T09:36:47.462Z,62.24
2022-09-20T09:40:19.309Z,61.83
2022-09-20T09:43:30.421Z,62.99
2022-09-20T09:46:42.228Z,63.78
2022-09-20T09:50:04.836Z,63.75
2022-09-20T09:53:18.397Z,63.50
2022-09-20T09:56:49.174Z,61.08
2022-09-20T10:00:23.857Z,57.10
2022-09-20T10:03:53.364Z,55.20
2022-09-20T10:07:12.754Z,53.67
2022-09-20T10:10:36.412Z,53.29
2022-09-20T10:14:03.751Z,52.33
2022-09-20T10:17:36.186Z,51.81
2022-09-20T10:21:10.347Z,52.82
2022-09-20T10:24:51.635Z,53.07
2022-09-20T10:28:23.914Z,50.38
2022-09-20T10:31:54.756Z,48.64
2022-09-20T10:35:23.055Z,49.01
2022-09-20T10:38:40.639Z,49.61
2022-09-20T10:42:16.555Z,47.68
2022-09-20T10:46:08.410Z,46.12
2022-09-20T10:49:48.449Z,44.33
2022-09-20T10:53:27.438Z,42.86
2022-09-20T10:56:40.509Z,40.48
2022-09-20T11:00:03.365Z,39.53
2022-09-20T11:03:40.311Z,39.46
2022-09-20T11:07:05.177Z,42.54
2022-09-20T11:10:36.372Z,45.52
2022-09-20T11:13:54.059Z,44.94
2022-09-20T11:17:09.714Z,47.68
2022-09-20T11:20:34.390Z,48.39
2022-09-20T11:23:54.444Z,49.26
2022-09-20T11:27:10.547Z,49.39
2022-09-20T11:30:24.689Z,51.54
2022-09-20T11:33:41.391Z,51.32
2022-09-20T11:36:59.151Z,50.37
2022-09-20T11:40:18.882Z,49.20
2022-09-20T11:43:29.289Z,49.83
2022-09-20T11:46:49.557Z,51.55
2022-09-20T11:50:51.171Z,49.18
2022-09-20T11:54:36.432Z,48.21
2022-09-20T11:57:43.361Z,46.33
2022-09-20T12:01:01.343Z,47.40
2022-09-20T12:04:40.722Z,45.86
2022-09-20T12:07:47.424Z,45.26
2022-09-20T12:11:07.269Z,45.50
2022-09-20T12:14:28.585Z,44.13
2022-09-20T12:18:25.638Z,42.70
2022-09-20T12:21:34.236Z,40.66
2022-09-20T12:24:45.810Z,41.17
2022-09-20T12:28:17.553Z,41.28
2022-09-20T12:31:49.203Z,41.19
2022-09-20T12:34:54.709Z,39.93
2022-09-20T12:38:28.013Z,39.58
2022-09-20T12:41:53.158Z,37.20
2022-09-20T12:45:08.457Z,36.30
2022-09-20T12:48:22.895Z,36.38
2022-09-20T12:51:50.436Z,37.44
2022-09-20T12:55:04.726Z,37.89
2022-09-20T12:58:29.907Z,38.32
2022-09-20T13:01:43.852Z,36.99
2022-09-20T13:05:12.369Z,38.10
2022-09-20T13:08:30.828Z,37.90
2022-09-20T13:11:47.759Z,40.07
2022-09-20T13:15:01.602Z,39.97
2022-09-20T13:18:10.149Z,40.38
2022-09-20T13:21:16.690Z,41.33
2022-09-20T13:24:23.826Z,41.20
2022-09-20T13:27:38.168Z,43.00
2022-09-20T13:30:43.717Z,43.11
2022-09-20T13:33:49.333Z,42.28
2022-09-20T13:37:01.666Z,42.85
2022-09-20T13:40:10.084Z,42.74
2022-09-20T13:43:31.170Z,44.21
2022-09-20T13:46:49.315Z,44.69
2022-09-20T13:49:54.955Z,44.73
2022-09-20T13:53:07.740Z,46.00
2022-09-20T13:56:22.595Z,46.50
2022-09-20T13:59:41.024Z,48.78
2022-09-20T14:02:46.815Z,47.44
2022-09-20T14:05:56.286Z,47.53
2022-09-20T14:09:11.500Z,47.43
2022-09-20T14:12:22.376Z,47.00
2022-09-20T14:15:38.978Z,47.76
2022-09-20T14:18:49.461Z,47.14
2022-09-20T14:21:55.603Z,46.64
2022-09-20T14:25:30.187Z,45.54
2022-09-20T14:28:45.005Z,46.56
2022-09-20T14:31:53.394Z,46.32
2022-09-20T14:35:08.291Z,46.99
2022-09-20T14:38:14.719Z,46.29
2022-09-20T14:41:33.284Z,46.54
2022-09-20T14:44:38.887Z,46.35
2022-09-20T14:48:09.532Z,46.38
2022-09-20T14:51:26.987Z,46.86
2022-09-20T14:54:35.135Z,46.74
2022-09-20T14:57:41.256Z,46.60
2022-09-20T15:00:58.053Z,46.09
2022-09-20T15:04:23.293Z,46.59
2022-09-20T15:07:29.264Z,46.17
2022-09-20T15:10:35.217Z,46.99
2022-09-20T15:13:40.787Z,46.53
2022-09-20T15:16:46.447Z,46.24
2022-09-20T15:19:55.332Z,46.19
2022-09-20T15:23:08.449Z,47.20
2022-09-20T15:26:17.150Z,46.76
2022-09-20T15:29:25.365Z,47.73
2022-09-20T15:32:31.671Z,48.12
2022-09-20T15:35:39.925Z,49.07
2022-09-20T15:38:45.908Z,49.88
2022-09-20T15:42:00.285Z,50.46
2022-09-20T15:45:17.692Z,51.25
2022-09-20T15:48:26.667Z,51.72
2022-09-20T15:51:36.390Z,52.50
2022-09-20T15:54:46.352Z,52.66
2022-09-20T15:57:51.989Z,53.81
2022-09-20T16:00:57.561Z,54.13
2022-09-20T16:04:11.868Z,54.52
2022-09-20T16:07:26.048Z,55.66
2022-09-20T16:10:31.881Z,55.49
2022-09-20T16:13:39.172Z,56.20
2022-09-20T16:16:44.941Z,56.28
2022-09-20T16:19:49.011Z,56.54
2022-09-20T16:22:57.480Z,57.54
2022-09-20T16:26:08.355Z,58.21
2022-09-20T16:29:16.838Z,58.78
2022-09-20T16:32:24.354Z,58.89
2022-09-20T16:35:29.990Z,59.81
2022-09-20T16:38:46.032Z,60.43
2022-09-20T16:41:53.252Z,60.36
2022-09-20T16:44:59.119Z,60.77
2022-09-20T16:48:08.589Z,61.44
2022-09-20T16:51:21.323Z,61.86
2022-09-20T16:54:35.944Z,62.36
2022-09-20T16:57:41.769Z,62.75
2022-09-20T17:00:48.447Z,62.78
2022-09-20T17:04:09.636Z,63.22
2022-09-20T17:07:16.064Z,63.30
2022-09-20T17:10:29.492Z,63.48
2022-09-20T17:13:36.410Z,63.46
2022-09-20T17:16:48.152Z,63.65
2022-09-20T17:19:54.510Z,64.37
2022-09-20T17:23:00.845Z,65.03
2022-09-20T17:26:16.858Z,65.39
2022-09-20T17:29:24.470Z,66.07
2022-09-20T17:32:30.022Z,66.52
2022-09-20T17:35:38.524Z,66.47
2022-09-20T17:38:50.496Z,66.60
2022-09-20T17:42:03.147Z,66.90
2022-09-20T17:45:12.734Z,66.98
2022-09-20T17:48:19.244Z,67.04
2022-09-20T17:51:28.534Z,66.77
2022-09-20T17:54:34.421Z,67.09
2022-09-20T17:57:42.590Z,67.66
2022-09-20T18:00:48.313Z,67.62
2022-09-20T18:03:54.462Z,68.27
2022-09-20T18:07:02.078Z,68.48
2022-09-20T18:10:08.893Z,69.36
2022-09-20T18:13:18.540Z,69.99
2022-09-20T18:16:24.593Z,69.96
2022-09-20T18:19:33.360Z,70.38
2022-09-20T18:22:39.155Z,70.21
2022-09-20T18:25:59.995Z,69.92
2022-09-20T18:29:18.390Z,70.41
2022-09-20T18:32:30.197Z,70.22
2022-09-20T18:35:37.601Z,70.26
2022-09-20T18:38:49.450Z,69.93
2022-09-20T18:41:56.286Z,70.28
2022-09-20T18:45:04.715Z,69.85
2022-09-20T18:48:10.463Z,70.26
2022-09-20T18:51:16.457Z,69.98
2022-09-20T18:54:22.859Z,70.28
2022-09-20T18:57:29.630Z,70.02
2022-09-20T19:00:39.262Z,70.11
2022-09-20T19:04:07.685Z,69.86
2022-09-20T19:07:28.261Z,69.93
2022-09-20T19:10:49.718Z,69.78
2022-09-20T19:14:07.997Z,70.07
2022-09-20T19:17:33.925Z,70.49
2022-09-20T19:20:51.555Z,70.68
2022-09-20T19:24:18.714Z,71.47
2022-09-20T19:27:25.960Z,71.58
2022-09-20T19:30:32.866Z,71.58
2022-09-20T19:33:45.625Z,71.90
2022-09-20T19:37:18.942Z,72.17
2022-09-20T19:40:41.433Z,71.91
2022-09-20T19:44:19.353Z,72.14
2022-09-20T19:47:42.562Z,72.19
2022-09-20T19:50:56.779Z,73.10
2022-09-20T19:54:06.386Z,72.93
2022-09-20T19:57:24.281Z,73.30
2022-09-20T20:00:31.609Z,73.52
2022-09-20T20:03:40.394Z,73.95
2022-09-20T20:07:07.275Z,74.18
2022-09-20T20:10:29.627Z,74.12
2022-09-20T20:14:01.444Z,74.26
2022-09-20T20:17:30.351Z,75.07
2022-09-20T20:20:46.850Z,75.27
2022-09-20T20:24:21.224Z,75.11
2022-09-20T20:27:31.828Z,75.72
2022-09-20T20:30:37.506Z,75.83
2022-09-20T20:33:44.128Z,76.13
2022-09-20T20:36:50.116Z,75.99
2022-09-20T20:39:58.341Z,76.15
2022-09-20T20:43:06.329Z,76.28
2022-09-20T20:46:15.780Z,76.56
2022-09-20T20:49:21.465Z,77.04
2022-09-20T20:52:27.167Z,76.81
2022-09-20T20:55:36.740Z,77.19
2022-09-20T20:58:45.980Z,77.10
2022-09-20T21:01:51.472Z,77.52
2022-09-20T21:04:57.067Z,77.54
2022-09-20T21:08:03.098Z,77.83
2022-09-20T21:11:14.845Z,78.02
2022-09-20T21:14:20.428Z,77.86
2022-09-20T21:17:26.118Z,78.15
2022-09-20T21:20:31.687Z,77.33
2022-09-20T21:23:38.566Z,77.46
2022-09-20T21:26:48.730Z,77.29
2022-09-20T21:29:54.672Z,77.50
2022-09-20T21:33:00.136Z,77.69
2022-09-20T21:36:09.120Z,77.70
2022-09-20T21:39:15.650Z,78.16
2022-09-20T21:42:27.443Z,77.89
2022-09-20T21:45:33.740Z,77.57
2022-09-20T21:48:39.420Z,77.01
2022-09-20T21:51:46.076Z,77.30
2022-09-20T21:54:52.725Z,77.38
2022-09-20T21:58:00.888Z,77.22
2022-09-20T22:01:10.219Z,77.66
2022-09-20T22:04:17.846Z,77.22
2022-09-20T22:07:23.467Z,77.49
2022-09-20T22:10:29.503Z,77.68
2022-09-20T22:13:41.906Z,77.98
2022-09-20T22:16:51.514Z,77.46
2022-09-20T22:19:57.129Z,77.64
2022-09-20T22:23:08.302Z,77.54
2022-09-20T22:26:18.900Z,77.47
2022-09-20T22:29:26.972Z,77.21
2022-09-20T22:32:50.632Z,77.57
2022-09-20T22:36:18.296Z,77.06
2022-09-20T22:39:40.447Z,77.45
2022-09-20T22:43:06.487Z,77.28
2022-09-20T22:46:17.228Z,77.27
2022-09-20T22:49:30.021Z,76.68
2022-09-20T22:52:37.680Z,76.77
2022-09-20T22:55:43.128Z,76.63
2022-09-20T22:58:52.050Z,77.20
2022-09-20T23:02:00.272Z,77.18
2022-09-20T23:05:06.568Z,77.05
2022-09-20T23:08:12.126Z,76.93
2022-09-20T23:11:19.295Z,77.13
2022-09-20T23:14:25.918Z,77.03
2022-09-20T23:17:34.022Z,77.01
2022-09-20T23:20:39.526Z,76.96
2022-09-20T23:23:45.768Z,76.89
2022-09-20T23:26:51.680Z,77.06
2022-09-20T23:29:57.298Z,77.09
2022-09-20T23:33:05.432Z,77.38
2022-09-20T23:36:13.492Z,76.97
2022-09-20T23:39:19.178Z,77.10
2022-09-20T23:42:24.744Z,77.44
2022-09-20T23:45:30.224Z,77.65
2022-09-20T23:48:41.556Z,77.12
2022-09-20T23:51:47.017Z,77.50
2022-09-20T23:54:52.512Z,77.68
2022-09-20T23:57:58.865Z,77.70
